Time;durP1;ratioP1;P1;durP2;ratioP2;P2;SDS_P1;SDS_P2;PMS_P1;PMS_P2;Temp;Humidity;BMP_temperature;BMP_pressure;BME280_temperature;BME280_humidity;BME280_pressure;Samples;Min_cycle;Max_cycle;Signal;HPM_P1;HPM_P2
2022/01/23 00:00:55;;;;;;;;;;;22.50;99.90;;;;;;5053371;28;19920;-71
2022/01/23 00:03:22;;;;;;;;;;;22.60;99.90;;;;;;5054213;28;20329;-71
2022/01/23 00:05:49;;;;;;;;;;;22.50;99.90;;;;;;5054132;28;19912;-71
2022/01/23 00:08:20;;;;;;;;;;;22.60;99.90;;;;;;5054501;28;19909;-72
2022/01/23 00:10:47;;;;;;;;;;;22.50;99.90;;;;;;5054226;28;19916;-72
2022/01/23 00:17:16;;;;;;;;;;;22.50;99.90;;;;;;5053988;28;19916;-72
2022/01/23 00:18:48;;;;;;;;;;;21.70;99.90;;;;;;5054450;28;19978;-72
2022/01/23 00:21:14;;;;;;;;;;;21.20;99.90;;;;;;5053831;28;20366;-73
2022/01/23 00:31:39;;;;;;;;;;;21.10;99.90;;;;;;5053534;28;20398;-73
2022/01/23 00:34:06;;;;;;;;;;;21.10;99.90;;;;;;5053350;28;20269;-73
2022/01/23 00:36:32;;;;;;;;;;;21.00;99.90;;;;;;5053584;28;19917;-74
2022/01/23 00:38:59;;;;;;;;;;;21.00;99.90;;;;;;5053575;28;19909;-72
2022/01/23 00:41:26;;;;;;;;;;;21.00;99.90;;;;;;5053338;28;20003;-72
2022/01/23 00:43:54;;;;;;;;;;;21.00;99.90;;;;;;5052833;28;19909;-71
2022/01/23 00:46:23;;;;;;;;;;;21.10;99.90;;;;;;5053077;28;20012;-71
2022/01/23 00:49:36;;;;;;;;;;;21.20;99.90;;;;;;5053098;28;20288;-71
2022/01/23 00:51:39;;;;;;;;;;;21.20;99.90;;;;;;5051528;28;19923;-70
2022/01/23 00:54:07;;;;;;;;;;;21.30;99.90;;;;;;5053027;28;19924;-71
2022/01/23 00:56:34;;;;;;;;;;;21.40;99.90;;;;;;5053179;28;19950;-71
2022/01/23 00:59:01;;;;;;;;;;;21.60;99.90;;;;;;5052568;28;19970;-72
2022/01/23 01:01:28;;;;;;;;;;;21.90;99.90;;;;;;5052807;28;20008;-70
2022/01/23 01:03:54;;;;;;;;;;;22.30;99.90;;;;;;5052865;28;19909;-71
2022/01/23 01:06:21;;;;;;;;;;;22.90;99.90;;;;;;5052911;28;19908;-71
2022/01/23 01:08:50;;;;;;;;;;;23.40;99.90;;;;;;5053053;28;19909;-70
2022/01/23 01:33:18;;;;;;;;;;;;;;;;;;;;;
2022/01/23 01:35:47;;;;;;;;;;;22.50;99.90;;;;;;5052537;28;19909;-71
2022/01/23 01:38:14;;;;;;;;;;;22.10;99.90;;;;;;5052560;28;19908;-71
2022/01/23 01:40:41;;;;;;;;;;;21.70;99.90;;;;;;5052221;28;20043;-70
2022/01/23 01:43:08;;;;;;;;;;;21.40;99.90;;;;;;5052257;28;19936;-71
2022/01/23 01:45:35;;;;;;;;;;;21.40;99.90;;;;;;5052467;28;19951;-71
2022/01/23 01:48:02;;;;;;;;;;;21.10;99.90;;;;;;5052294;28;19909;-71
2022/01/23 01:50:30;;;;;;;;;;;21.10;99.90;;;;;;5052159;28;19943;-71
2022/01/23 01:52:57;;;;;;;;;;;21.00;99.90;;;;;;5052339;28;19913;-71
2022/01/23 01:55:28;;;;;;;;;;;20.80;99.90;;;;;;5052302;28;20334;-71
2022/01/23 01:58:03;;;;;;;;;;;20.80;99.90;;;;;;5052150;28;20275;-71
2022/01/23 02:08:30;;;;;;;;;;;21.20;99.90;;;;;;5052550;28;19920;-71
2022/01/23 02:11:07;;;;;;;;;;;21.50;99.90;;;;;;5052297;28;20363;-71
2022/01/23 02:13:39;;;;;;;;;;;21.70;99.90;;;;;;5052252;28;19916;-71
2022/01/23 02:56:58;;;;;;;;;;;23.90;99.90;;;;;;5060191;28;19915;-71
2022/01/23 02:59:31;;;;;;;;;;;23.90;99.90;;;;;;5071174;28;19915;-70
2022/01/23 03:04:28;;;;;;;;;;;23.50;99.90;;;;;;5071905;28;19952;-70
2022/01/23 03:28:17;;;;;;;;;;;23.60;99.90;;;;;;5075140;28;19909;-71
2022/01/23 03:30:52;;;;;;;;;;;23.50;99.90;;;;;;5075064;28;19908;-71
2022/01/23 03:33:19;;;;;;;;;;;23.40;99.90;;;;;;5074840;28;20379;-71
2022/01/23 03:35:46;;;;;;;;;;;23.30;99.90;;;;;;5074817;28;20422;-71
2022/01/23 03:38:12;;;;;;;;;;;23.20;99.90;;;;;;5074702;28;19914;-71
2022/01/23 03:40:39;;;;;;;;;;;23.20;99.90;;;;;;5074735;28;19999;-70
2022/01/23 03:43:11;;;;;;;;;;;23.30;99.90;;;;;;5074904;28;19908;-70
2022/01/23 03:45:57;;;;;;;;;;;23.50;99.90;;;;;;5074901;28;19909;-70
2022/01/23 03:50:53;;;;;;;;;;;23.50;99.90;;;;;;5074714;28;19921;-71
2022/01/23 03:53:20;;;;;;;;;;;23.50;99.90;;;;;;5074627;28;19909;-71
2022/01/23 03:55:50;;;;;;;;;;;23.40;99.90;;;;;;5074316;28;19912;-70
2022/01/23 03:58:16;;;;;;;;;;;23.30;99.90;;;;;;5074295;28;20094;-70
2022/01/23 04:00:43;;;;;;;;;;;23.40;99.90;;;;;;5074365;28;20354;-71
2022/01/23 04:03:10;;;;;;;;;;;23.50;99.90;;;;;;5074508;28;19908;-71
2022/01/23 04:05:36;;;;;;;;;;;23.60;99.90;;;;;;5074154;28;19924;-72
2022/01/23 04:08:04;;;;;;;;;;;23.70;99.90;;;;;;5073998;28;19908;-71
2022/01/23 04:10:30;;;;;;;;;;;23.60;99.90;;;;;;5074409;28;19909;-72
2022/01/23 04:13:10;;;;;;;;;;;23.20;99.90;;;;;;5074147;28;19973;-72
2022/01/23 04:15:50;;;;;;;;;;;23.00;99.90;;;;;;5074235;28;19912;-71
2022/01/23 04:19:06;;;;;;;;;;;23.00;99.90;;;;;;5075084;28;19913;-71
2022/01/23 04:31:42;;;;;;;;;;;23.00;99.90;;;;;;5073839;28;20019;-70
2022/01/23 04:32:35;;;;;;;;;;;23.10;99.90;;;;;;5074397;28;19915;-71
2022/01/23 04:35:39;;;;;;;;;;;23.10;99.90;;;;;;5074394;28;19915;-71
2022/01/23 04:46:30;;;;;;;;;;;23.30;99.90;;;;;;5074003;28;19994;-70
2022/01/23 05:00:01;;;;;;;;;;;23.80;99.90;;;;;;5073651;28;19979;-72
2022/01/23 05:04:57;;;;;;;;;;;23.60;99.90;;;;;;5074526;28;19955;-73
2022/01/23 05:07:29;;;;;;;;;;;23.60;99.90;;;;;;5080315;28;19975;-71
2022/01/23 05:09:56;;;;;;;;;;;23.70;99.90;;;;;;5077923;28;20317;-71
2022/01/23 05:12:26;;;;;;;;;;;23.60;99.90;;;;;;5073417;28;19908;-71
2022/01/23 05:14:53;;;;;;;;;;;23.60;99.90;;;;;;5072962;28;19908;-72
2022/01/23 05:17:20;;;;;;;;;;;23.70;99.90;;;;;;5073024;28;19909;-71
2022/01/23 05:19:47;;;;;;;;;;;23.50;99.90;;;;;;5072727;28;19916;-71
2022/01/23 05:22:26;;;;;;;;;;;23.60;99.90;;;;;;5073056;28;20038;-71
2022/01/23 05:24:57;;;;;;;;;;;23.60;99.90;;;;;;5073009;28;19908;-71
2022/01/23 05:27:27;;;;;;;;;;;23.70;99.90;;;;;;5072922;28;19915;-71
2022/01/23 05:29:54;;;;;;;;;;;23.90;99.90;;;;;;5072295;28;19908;-71
2022/01/23 05:32:24;;;;;;;;;;;23.80;99.90;;;;;;5072694;28;20006;-71
2022/01/23 05:34:51;;;;;;;;;;;23.80;99.90;;;;;;5072866;28;20393;-71
2022/01/23 05:37:17;;;;;;;;;;;24.00;99.90;;;;;;5072227;28;19912;-71
2022/01/23 05:39:44;;;;;;;;;;;24.10;99.90;;;;;;5072790;28;19934;-71
2022/01/23 05:42:11;;;;;;;;;;;24.00;99.90;;;;;;5072634;28;19912;-71
2022/01/23 05:44:38;;;;;;;;;;;24.00;99.90;;;;;;5072269;28;19919;-71
2022/01/23 05:47:05;;;;;;;;;;;24.00;99.90;;;;;;5072533;28;20327;-72
2022/01/23 05:49:33;;;;;;;;;;;23.90;99.90;;;;;;5072404;28;19924;-72
2022/01/23 05:51:59;;;;;;;;;;;23.90;99.90;;;;;;5072421;28;19912;-71
2022/01/23 05:54:26;;;;;;;;;;;24.00;99.90;;;;;;5072638;28;19909;-72
2022/01/23 05:56:53;;;;;;;;;;;24.00;99.90;;;;;;5072328;28;19916;-72
2022/01/23 05:59:21;;;;;;;;;;;23.90;99.90;;;;;;5072498;28;19908;-71
2022/01/23 06:01:56;;;;;;;;;;;23.70;99.90;;;;;;5072315;28;20009;-71
2022/01/23 06:04:24;;;;;;;;;;;23.50;99.90;;;;;;5072614;28;19931;-72
2022/01/23 06:06:51;;;;;;;;;;;23.40;99.90;;;;;;5072580;28;20283;-73
2022/01/23 06:09:20;;;;;;;;;;;23.50;99.90;;;;;;5072351;28;19919;-73
2022/01/23 06:11:47;;;;;;;;;;;23.60;99.90;;;;;;5071972;28;19923;-72
2022/01/23 06:14:13;;;;;;;;;;;23.50;99.90;;;;;;5072058;28;19915;-72
2022/01/23 06:16:40;;;;;;;;;;;23.30;99.90;;;;;;5072227;28;19908;-73
2022/01/23 06:19:07;;;;;;;;;;;23.20;99.90;;;;;;5072005;28;19916;-72
2022/01/23 06:21:33;;;;;;;;;;;23.00;99.90;;;;;;5072012;28;19952;-72
2022/01/23 06:26:38;;;;;;;;;;;22.90;99.90;;;;;;5072257;28;20007;-72
2022/01/23 06:29:06;;;;;;;;;;;23.00;99.90;;;;;;5071780;28;20217;-73
2022/01/23 06:31:33;;;;;;;;;;;23.00;99.90;;;;;;5071845;28;19967;-72
2022/01/23 06:34:00;;;;;;;;;;;23.10;99.90;;;;;;5071765;28;19909;-72
2022/01/23 06:36:27;;;;;;;;;;;23.10;99.90;;;;;;5072191;28;20015;-71
2022/01/23 06:38:54;;;;;;;;;;;23.10;99.90;;;;;;5072244;28;20286;-73
2022/01/23 06:41:20;;;;;;;;;;;23.10;99.90;;;;;;5071927;28;19960;-73
2022/01/23 06:43:47;;;;;;;;;;;23.10;99.90;;;;;;5071720;28;20383;-72
2022/01/23 06:46:15;;;;;;;;;;;23.10;99.90;;;;;;5071877;28;19915;-70
2022/01/23 06:48:42;;;;;;;;;;;23.10;99.90;;;;;;5072382;28;20424;-71
2022/01/23 06:51:08;;;;;;;;;;;23.10;99.90;;;;;;5075591;28;20308;-70
2022/01/23 06:53:35;;;;;;;;;;;23.20;99.90;;;;;;5074344;28;19909;-70
2022/01/23 06:56:02;;;;;;;;;;;23.20;99.90;;;;;;5075360;28;19915;-70
2022/01/23 06:58:28;;;;;;;;;;;23.20;99.90;;;;;;5075435;28;19909;-71
2022/01/23 07:00:55;;;;;;;;;;;23.20;99.90;;;;;;5074966;28;19912;-71
2022/01/23 07:03:21;;;;;;;;;;;23.20;99.90;;;;;;5075470;28;19988;-71
2022/01/23 07:05:48;;;;;;;;;;;23.10;99.90;;;;;;5075100;28;19958;-71
2022/01/23 07:08:15;;;;;;;;;;;23.10;99.90;;;;;;5075522;28;19915;-71
2022/01/23 07:10:41;;;;;;;;;;;23.10;99.90;;;;;;5075469;28;19981;-71
2022/01/23 07:13:08;;;;;;;;;;;23.10;99.90;;;;;;5075186;28;19974;-71
2022/01/23 07:15:35;;;;;;;;;;;23.00;99.90;;;;;;5075005;28;20004;-71
2022/01/23 07:18:02;;;;;;;;;;;23.10;99.90;;;;;;5090905;28;19915;-71
2022/01/23 07:20:28;;;;;;;;;;;23.10;99.90;;;;;;5073896;28;19924;-71
2022/01/23 07:22:55;;;;;;;;;;;23.00;99.90;;;;;;5075032;28;20389;-71
2022/01/23 07:25:22;;;;;;;;;;;23.00;99.90;;;;;;5075080;28;19913;-71
2022/01/23 07:27:52;;;;;;;;;;;23.00;99.90;;;;;;5074769;28;20367;-71
2022/01/23 07:30:34;;;;;;;;;;;22.90;99.90;;;;;;5074425;28;19908;-71
2022/01/23 07:33:00;;;;;;;;;;;23.00;99.90;;;;;;5074808;28;20350;-71
2022/01/23 07:35:27;;;;;;;;;;;22.90;99.90;;;;;;5074854;28;19966;-71
2022/01/23 07:37:54;;;;;;;;;;;22.90;99.90;;;;;;5074672;28;19931;-72
2022/01/23 07:40:21;;;;;;;;;;;22.90;99.90;;;;;;5074483;28;19935;-72
2022/01/23 07:42:47;;;;;;;;;;;22.80;99.90;;;;;;5074359;28;19923;-72
2022/01/23 07:45:14;;;;;;;;;;;22.80;99.90;;;;;;5073970;28;19954;-72
2022/01/23 07:47:41;;;;;;;;;;;22.70;99.90;;;;;;5074592;28;19908;-72
2022/01/23 07:50:08;;;;;;;;;;;22.70;99.90;;;;;;5074335;28;19924;-70
2022/01/23 07:52:36;;;;;;;;;;;22.60;99.90;;;;;;5074335;28;20007;-70
2022/01/23 07:55:10;;;;;;;;;;;22.60;99.90;;;;;;5074425;28;19987;-71
2022/01/23 07:57:38;;;;;;;;;;;22.50;99.90;;;;;;5074252;28;19912;-70
2022/01/23 08:00:05;;;;;;;;;;;22.50;99.90;;;;;;5073104;28;19934;-71
2022/01/23 08:02:32;;;;;;;;;;;22.50;99.90;;;;;;5074336;28;19935;-70
2022/01/23 08:04:59;;;;;;;;;;;22.40;99.90;;;;;;5074330;28;19908;-71
2022/01/23 08:09:56;;;;;;;;;;;22.40;99.90;;;;;;5073904;28;19953;-71
2022/01/23 08:12:27;;;;;;;;;;;22.30;99.90;;;;;;5073891;28;19983;-70
2022/01/23 08:14:53;;;;;;;;;;;22.30;99.90;;;;;;5073416;28;19915;-70
2022/01/23 08:17:24;;;;;;;;;;;22.20;99.90;;;;;;5074057;28;20359;-71
2022/01/23 08:19:52;;;;;;;;;;;22.30;99.90;;;;;;5073700;28;19909;-70
2022/01/23 08:22:18;;;;;;;;;;;22.30;99.90;;;;;;5070997;28;19916;-70
2022/01/23 08:24:45;;;;;;;;;;;22.20;99.90;;;;;;5073916;28;19908;-70
2022/01/23 08:27:12;;;;;;;;;;;22.30;99.90;;;;;;5073777;28;19994;-71
2022/01/23 08:29:38;;;;;;;;;;;22.30;99.90;;;;;;5073853;28;20367;-72
2022/01/23 08:32:05;;;;;;;;;;;22.20;99.90;;;;;;5073444;28;19938;-72
2022/01/23 08:34:32;;;;;;;;;;;22.10;99.90;;;;;;5073694;28;20359;-72
2022/01/23 08:36:59;;;;;;;;;;;22.00;99.90;;;;;;5073638;28;19990;-71
2022/01/23 08:39:26;;;;;;;;;;;21.90;99.90;;;;;;5073545;28;20278;-73
2022/01/23 08:41:53;;;;;;;;;;;21.80;99.90;;;;;;5073051;28;19920;-72
2022/01/23 08:44:23;;;;;;;;;;;21.70;99.90;;;;;;5073694;28;20381;-71
2022/01/23 08:46:50;;;;;;;;;;;21.50;99.90;;;;;;5069720;28;19996;-72
2022/01/23 08:49:18;;;;;;;;;;;21.40;99.90;;;;;;5073388;28;20375;-69
2022/01/23 08:51:45;;;;;;;;;;;21.40;99.90;;;;;;5073241;28;19962;-70
2022/01/23 08:54:12;;;;;;;;;;;21.40;99.90;;;;;;5073537;28;19919;-70
2022/01/23 08:56:39;;;;;;;;;;;21.30;99.90;;;;;;5073120;28;19908;-72
2022/01/23 08:59:06;;;;;;;;;;;21.30;99.90;;;;;;5073138;28;19915;-71
2022/01/23 09:01:33;;;;;;;;;;;21.20;99.90;;;;;;5072524;28;19943;-70
2022/01/23 09:04:00;;;;;;;;;;;21.20;99.90;;;;;;5073072;28;20427;-70
2022/01/23 09:06:27;;;;;;;;;;;21.20;99.90;;;;;;5072867;28;19913;-70
2022/01/23 09:08:54;;;;;;;;;;;21.10;99.90;;;;;;5072964;28;19909;-71
2022/01/23 09:11:37;;;;;;;;;;;21.10;99.90;;;;;;5071967;28;19931;-70
2022/01/23 09:14:07;;;;;;;;;;;21.10;99.90;;;;;;5072677;28;19908;-70
2022/01/23 09:16:40;;;;;;;;;;;21.00;99.90;;;;;;5072283;28;19915;-70
2022/01/23 09:19:08;;;;;;;;;;;21.10;99.90;;;;;;5072791;28;19919;-70
2022/01/23 09:21:35;;;;;;;;;;;21.00;99.90;;;;;;5072710;28;19920;-70
2022/01/23 09:24:02;;;;;;;;;;;21.00;99.90;;;;;;5072763;28;20316;-70
2022/01/23 09:26:28;;;;;;;;;;;21.00;99.90;;;;;;5072453;28;19914;-70
2022/01/23 09:28:59;;;;;;;;;;;21.10;99.90;;;;;;5072795;28;19909;-71
2022/01/23 09:31:34;;;;;;;;;;;21.00;99.90;;;;;;5072062;28;20262;-69
2022/01/23 09:34:01;;;;;;;;;;;21.10;99.90;;;;;;5072437;28;20366;-70
2022/01/23 09:36:28;;;;;;;;;;;21.10;99.90;;;;;;5072689;28;19920;-71
2022/01/23 09:38:55;;;;;;;;;;;21.00;99.90;;;;;;5072513;28;20271;-71
2022/01/23 09:41:26;;;;;;;;;;;21.10;99.90;;;;;;5072292;28;19916;-71
2022/01/23 09:43:54;;;;;;;;;;;21.10;99.90;;;;;;5072364;28;19931;-71
2022/01/23 09:46:22;;;;;;;;;;;21.00;99.90;;;;;;5071923;28;19912;-71
2022/01/23 09:48:51;;;;;;;;;;;21.00;99.90;;;;;;5072336;28;20418;-70
2022/01/23 09:51:23;;;;;;;;;;;21.10;99.90;;;;;;5072559;28;19970;-72
2022/01/23 09:53:52;;;;;;;;;;;21.10;99.90;;;;;;5072169;28;20417;-71
2022/01/23 09:56:31;;;;;;;;;;;21.10;99.90;;;;;;5072162;28;19912;-71
2022/01/23 09:58:58;;;;;;;;;;;21.20;99.90;;;;;;5072583;28;19934;-72
2022/01/23 10:01:25;;;;;;;;;;;21.20;99.90;;;;;;5071720;28;20015;-71
2022/01/23 10:03:51;;;;;;;;;;;21.20;99.90;;;;;;5072124;28;19955;-72
2022/01/23 10:06:18;;;;;;;;;;;21.20;99.90;;;;;;5072324;28;19908;-72
2022/01/23 10:08:45;;;;;;;;;;;21.20;99.90;;;;;;5072089;28;19920;-72
2022/01/23 10:11:13;;;;;;;;;;;21.20;99.90;;;;;;5071915;28;19909;-72
2022/01/23 10:13:41;;;;;;;;;;;21.10;99.90;;;;;;5072193;28;20006;-72
2022/01/23 10:16:08;;;;;;;;;;;21.10;99.90;;;;;;5072417;28;19909;-71
2022/01/23 10:18:35;;;;;;;;;;;21.10;99.90;;;;;;5072528;28;20055;-71
2022/01/23 10:21:01;;;;;;;;;;;21.00;99.90;;;;;;5072294;28;19925;-72
2022/01/23 10:23:28;;;;;;;;;;;21.00;99.90;;;;;;5074441;28;19912;-71
2022/01/23 10:25:55;;;;;;;;;;;21.00;99.90;;;;;;5075825;28;19999;-72
2022/01/23 10:28:28;;;;;;;;;;;21.00;99.90;;;;;;5076179;28;20017;-72
2022/01/23 10:30:58;;;;;;;;;;;21.00;99.90;;;;;;5076025;28;19909;-72
2022/01/23 10:33:26;;;;;;;;;;;20.90;99.90;;;;;;5076107;28;19978;-73
2022/01/23 10:35:53;;;;;;;;;;;20.80;99.90;;;;;;5075845;28;19916;-72
2022/01/23 10:38:20;;;;;;;;;;;20.50;99.90;;;;;;5075885;28;19955;-71
2022/01/23 10:40:52;;;;;;;;;;;20.40;99.90;;;;;;5075849;28;20366;-72
2022/01/23 10:48:46;;;;;;;;;;;20.10;99.90;;;;;;5075625;28;19916;-71
2022/01/23 10:51:18;;;;;;;;;;;20.10;99.90;;;;;;5076013;28;20392;-71
2022/01/23 10:53:58;;;;;;;;;;;20.10;99.90;;;;;;5075771;28;19908;-71
2022/01/23 10:56:26;;;;;;;;;;;20.10;99.90;;;;;;5075561;28;20000;-72
2022/01/23 10:59:06;;;;;;;;;;;20.10;99.90;;;;;;5075552;28;19915;-73
2022/01/23 11:01:33;;;;;;;;;;;20.10;99.90;;;;;;5075395;28;19921;-70
2022/01/23 11:04:17;;;;;;;;;;;20.20;99.90;;;;;;5075429;28;19909;-71
2022/01/23 11:06:52;;;;;;;;;;;20.30;99.90;;;;;;5075716;28;19908;-72
2022/01/23 11:09:19;;;;;;;;;;;20.30;99.90;;;;;;5075443;28;20366;-70
2022/01/23 11:11:48;;;;;;;;;;;20.30;99.90;;;;;;5075386;28;19992;-70
2022/01/23 11:19:47;;;;;;;;;;;20.00;99.90;;;;;;5075477;28;20365;-72
2022/01/23 11:22:17;;;;;;;;;;;19.90;99.90;;;;;;5075137;28;19943;-72
2022/01/23 11:24:48;;;;;;;;;;;19.90;99.90;;;;;;5073909;28;19916;-71
2022/01/23 11:27:19;;;;;;;;;;;19.90;99.90;;;;;;5074769;28;19908;-72
2022/01/23 11:30:05;;;;;;;;;;;20.00;99.90;;;;;;5075046;28;19909;-71
2022/01/23 11:32:38;;;;;;;;;;;19.90;99.90;;;;;;5074937;28;19908;-73
2022/01/23 11:35:09;;;;;;;;;;;20.00;99.90;;;;;;5074050;28;19908;-72
2022/01/23 11:37:39;;;;;;;;;;;19.90;99.90;;;;;;5075152;28;19916;-72
2022/01/23 11:40:21;;;;;;;;;;;19.80;99.90;;;;;;5074096;28;19909;-72
2022/01/23 11:53:57;;;;;;;;;;;19.70;99.90;;;;;;5074695;28;20355;-73
2022/01/23 11:58:55;;;;;;;;;;;19.50;99.90;;;;;;5074737;28;19908;-73
2022/01/23 12:01:25;;;;;;;;;;;19.50;99.90;;;;;;5074683;28;19977;-74
2022/01/23 12:04:16;;;;;;;;;;;19.40;99.90;;;;;;5080027;28;20386;-72
2022/01/23 12:06:45;;;;;;;;;;;19.40;99.90;;;;;;5075101;28;19999;-71
2022/01/23 12:09:12;;;;;;;;;;;19.40;99.90;;;;;;5074699;28;19909;-72
2022/01/23 12:11:42;;;;;;;;;;;19.40;99.90;;;;;;5074592;28;19908;-72
2022/01/23 12:16:54;;;;;;;;;;;19.30;99.90;;;;;;5074471;28;19916;-72
2022/01/23 12:19:25;;;;;;;;;;;19.30;99.90;;;;;;5074527;28;19955;-72
2022/01/23 12:21:53;;;;;;;;;;;19.30;99.90;;;;;;5074066;28;19923;-72
2022/01/23 12:24:22;;;;;;;;;;;19.20;99.90;;;;;;5073913;28;19909;-72
2022/01/23 12:26:49;;;;;;;;;;;19.20;99.90;;;;;;5073932;28;19995;-72
2022/01/23 12:29:19;;;;;;;;;;;19.20;99.90;;;;;;5074028;28;19908;-72
2022/01/23 12:31:47;;;;;;;;;;;19.20;99.90;;;;;;5073977;28;20286;-72
2022/01/23 12:34:14;;;;;;;;;;;19.20;99.90;;;;;;5073931;28;19976;-72
2022/01/23 12:36:40;;;;;;;;;;;19.30;99.90;;;;;;5073876;28;20003;-71
2022/01/23 12:39:07;;;;;;;;;;;19.30;99.90;;;;;;5074089;28;19913;-72
2022/01/23 12:41:34;;;;;;;;;;;19.40;99.90;;;;;;5073911;28;19916;-72
2022/01/23 12:44:08;;;;;;;;;;;19.50;99.90;;;;;;5073915;28;19916;-72
2022/01/23 12:46:37;;;;;;;;;;;19.60;99.90;;;;;;5073794;28;19909;-73
2022/01/23 12:49:16;;;;;;;;;;;19.70;99.90;;;;;;5073569;28;19920;-72
2022/01/23 12:51:43;;;;;;;;;;;19.70;99.90;;;;;;5073606;28;19909;-72
2022/01/23 12:54:17;;;;;;;;;;;19.70;99.90;;;;;;5073341;28;19916;-71
2022/01/23 12:56:46;;;;;;;;;;;19.70;99.90;;;;;;5073292;28;19916;-71
2022/01/23 12:59:21;;;;;;;;;;;19.80;99.90;;;;;;5088980;28;20311;-71
2022/01/23 13:01:50;;;;;;;;;;;19.80;99.90;;;;;;5088731;28;20326;-72
2022/01/23 13:04:17;;;;;;;;;;;19.90;99.90;;;;;;5073303;28;19918;-71
2022/01/23 13:06:51;;;;;;;;;;;19.90;99.90;;;;;;5073293;28;20310;-70
2022/01/23 13:09:31;;;;;;;;;;;19.90;99.90;;;;;;5073213;28;19913;-71
2022/01/23 13:12:06;;;;;;;;;;;20.00;99.90;;;;;;5072749;28;19917;-71
2022/01/23 13:14:37;;;;;;;;;;;20.10;99.90;;;;;;5073277;28;20282;-73
2022/01/23 13:29:00;;;;;;;;;;;20.10;99.90;;;;;;5072987;28;20370;-71
2022/01/23 13:31:06;;;;;;;;;;;20.00;99.90;;;;;;5072863;28;19915;-72
2022/01/23 13:33:32;;;;;;;;;;;19.90;99.90;;;;;;5072886;28;20291;-72
2022/01/23 13:36:01;;;;;;;;;;;19.80;99.90;;;;;;5072628;28;19943;-71
2022/01/23 13:38:33;;;;;;;;;;;19.80;99.90;;;;;;5072737;28;19915;-72
2022/01/23 13:41:09;;;;;;;;;;;19.70;99.90;;;;;;5072533;28;19935;-71
2022/01/23 13:59:29;;;;;;;;;;;19.60;99.90;;;;;;5072506;28;20347;-72
2022/01/23 14:04:31;;;;;;;;;;;19.60;99.90;;;;;;5072340;28;19999;-72
2022/01/23 14:06:58;;;;;;;;;;;19.60;99.90;;;;;;5072390;28;19915;-72
2022/01/23 14:09:26;;;;;;;;;;;19.60;99.90;;;;;;5072390;28;19908;-71
2022/01/23 14:11:53;;;;;;;;;;;19.60;99.90;;;;;;5071948;28;19964;-72
2022/01/23 14:14:24;;;;;;;;;;;19.60;99.90;;;;;;5072436;28;19995;-71
2022/01/23 14:16:53;;;;;;;;;;;19.60;99.90;;;;;;5072393;28;19909;-72
2022/01/23 14:19:21;;;;;;;;;;;19.50;99.90;;;;;;5072482;28;19991;-71
2022/01/23 14:21:50;;;;;;;;;;;19.50;99.90;;;;;;5072206;28;19946;-71
2022/01/23 14:24:21;;;;;;;;;;;19.50;99.90;;;;;;5072419;28;20385;-72
2022/01/23 14:26:59;;;;;;;;;;;19.50;99.90;;;;;;5072254;28;19913;-72
2022/01/23 14:29:26;;;;;;;;;;;19.50;99.90;;;;;;5072195;28;19983;-71
2022/01/23 14:32:14;;;;;;;;;;;19.50;99.90;;;;;;5071993;28;19913;-71
2022/01/23 14:34:41;;;;;;;;;;;19.50;99.90;;;;;;5072200;28;20394;-71
2022/01/23 14:37:08;;;;;;;;;;;19.40;99.90;;;;;;5072066;28;19925;-71
2022/01/23 14:39:35;;;;;;;;;;;19.40;99.90;;;;;;5072037;28;19908;-72
2022/01/23 14:42:12;;;;;;;;;;;19.50;99.90;;;;;;5071727;28;20359;-72
2022/01/23 14:44:39;;;;;;;;;;;19.50;99.90;;;;;;5072019;28;19963;-72
2022/01/23 14:47:07;;;;;;;;;;;19.50;99.90;;;;;;5072020;28;20012;-72
2022/01/23 14:49:35;;;;;;;;;;;19.50;99.90;;;;;;5071981;28;19920;-71
2022/01/23 14:52:03;;;;;;;;;;;19.50;99.90;;;;;;5071858;28;19915;-71
2022/01/23 14:54:33;;;;;;;;;;;19.50;99.90;;;;;;5071851;28;19908;-72
2022/01/23 14:57:01;;;;;;;;;;;19.50;99.90;;;;;;5071917;28;19909;-72
2022/01/23 14:59:30;;;;;;;;;;;19.50;99.90;;;;;;5071924;28;20270;-72
2022/01/23 15:01:57;;;;;;;;;;;19.40;99.90;;;;;;5070536;28;19917;-72
2022/01/23 15:04:23;;;;;;;;;;;19.30;99.90;;;;;;5072125;28;19915;-72
2022/01/23 15:06:54;;;;;;;;;;;19.30;99.90;;;;;;5072180;28;19940;-72
2022/01/23 15:09:22;;;;;;;;;;;19.40;99.90;;;;;;5072011;28;20050;-73
2022/01/23 15:11:49;;;;;;;;;;;19.40;99.90;;;;;;5075280;28;20299;-72
2022/01/23 15:14:16;;;;;;;;;;;19.40;99.90;;;;;;5075469;28;20359;-72
2022/01/23 15:16:43;;;;;;;;;;;19.50;99.90;;;;;;5075299;28;19917;-72
2022/01/23 15:19:10;;;;;;;;;;;19.50;99.90;;;;;;5075218;28;19908;-73
2022/01/23 15:21:37;;;;;;;;;;;19.40;99.90;;;;;;5075149;28;19943;-73
2022/01/23 15:24:04;;;;;;;;;;;19.50;99.90;;;;;;5074984;28;19915;-72
2022/01/23 15:26:34;;;;;;;;;;;19.50;99.90;;;;;;5075198;28;19909;-72
2022/01/23 15:29:01;;;;;;;;;;;19.50;99.90;;;;;;5075220;28;19915;-72
2022/01/23 15:31:28;;;;;;;;;;;19.50;99.90;;;;;;5075340;28;19938;-72
2022/01/23 15:33:54;;;;;;;;;;;19.40;99.90;;;;;;5074848;28;20363;-72
2022/01/23 15:36:21;;;;;;;;;;;19.40;99.90;;;;;;5074970;28;19938;-72
2022/01/23 15:38:49;;;;;;;;;;;19.50;99.90;;;;;;5075024;28;19987;-72
2022/01/23 15:41:15;;;;;;;;;;;19.40;99.90;;;;;;5074765;28;20313;-72
2022/01/23 15:43:42;;;;;;;;;;;19.40;99.90;;;;;;5074865;28;20003;-73
2022/01/23 15:46:09;;;;;;;;;;;19.40;99.90;;;;;;5074668;28;19936;-73
2022/01/23 15:48:36;;;;;;;;;;;19.40;99.90;;;;;;5074909;28;20322;-73
2022/01/23 15:51:03;;;;;;;;;;;19.40;99.90;;;;;;5074888;28;19924;-72
2022/01/23 15:53:30;;;;;;;;;;;19.40;99.90;;;;;;5074670;28;19909;-72
2022/01/23 15:55:57;;;;;;;;;;;19.40;99.90;;;;;;5074292;28;20430;-73
2022/01/23 15:58:27;;;;;;;;;;;19.40;99.90;;;;;;5074548;28;19969;-72
2022/01/23 16:00:53;;;;;;;;;;;19.40;99.90;;;;;;5074276;28;20392;-72
2022/01/23 16:03:20;;;;;;;;;;;19.30;99.90;;;;;;5074363;28;20065;-72
2022/01/23 16:05:47;;;;;;;;;;;19.30;99.90;;;;;;5074234;28;20562;-72
2022/01/23 16:08:13;;;;;;;;;;;19.30;99.90;;;;;;5074478;28;19962;-72
2022/01/23 16:10:40;;;;;;;;;;;19.30;99.90;;;;;;5074332;28;19948;-73
2022/01/23 16:13:07;;;;;;;;;;;19.30;99.90;;;;;;5074392;28;19908;-72
2022/01/23 16:15:33;;;;;;;;;;;19.30;99.90;;;;;;5074145;28;20267;-73
2022/01/23 16:18:02;;;;;;;;;;;19.30;99.90;;;;;;5074011;28;19915;-72
2022/01/23 16:20:29;;;;;;;;;;;19.30;99.90;;;;;;5073776;28;19912;-73
2022/01/23 16:22:55;;;;;;;;;;;19.30;99.90;;;;;;5074058;28;20289;-72
2022/01/23 16:25:22;;;;;;;;;;;19.40;99.90;;;;;;5073821;28;19916;-72
2022/01/23 16:27:49;;;;;;;;;;;19.30;99.90;;;;;;5073786;28;19908;-72
2022/01/23 16:30:17;;;;;;;;;;;19.40;99.90;;;;;;5073882;28;19909;-72
2022/01/23 16:32:44;;;;;;;;;;;19.40;99.90;;;;;;5074096;28;19954;-72
2022/01/23 16:35:14;;;;;;;;;;;19.30;99.90;;;;;;5073986;28;19909;-72
2022/01/23 16:37:41;;;;;;;;;;;19.40;99.90;;;;;;5073989;28;19955;-72
2022/01/23 16:40:08;;;;;;;;;;;19.30;99.90;;;;;;5073353;28;19952;-72
2022/01/23 16:42:35;;;;;;;;;;;19.40;99.90;;;;;;5073729;28;19991;-72
2022/01/23 16:45:01;;;;;;;;;;;19.40;99.90;;;;;;5073599;28;19908;-72
2022/01/23 16:47:28;;;;;;;;;;;19.40;99.90;;;;;;5073618;28;19919;-71
2022/01/23 16:49:55;;;;;;;;;;;19.40;99.90;;;;;;5073292;28;19920;-71
2022/01/23 16:52:22;;;;;;;;;;;19.40;99.90;;;;;;5073488;28;20428;-72
2022/01/23 16:54:49;;;;;;;;;;;19.40;99.90;;;;;;5073249;28;19915;-72
2022/01/23 16:57:18;;;;;;;;;;;19.40;99.90;;;;;;5073573;28;19987;-72
2022/01/23 16:59:44;;;;;;;;;;;19.40;99.90;;;;;;5073426;28;19908;-72
2022/01/23 17:02:11;;;;;;;;;;;19.40;99.90;;;;;;5073273;28;20007;-72
2022/01/23 17:04:37;;;;;;;;;;;19.40;99.90;;;;;;5073345;28;19948;-72
2022/01/23 17:07:04;;;;;;;;;;;19.40;99.90;;;;;;5073222;28;19915;-72
2022/01/23 17:09:32;;;;;;;;;;;19.50;99.90;;;;;;5073055;28;20003;-71
2022/01/23 17:11:59;;;;;;;;;;;19.50;99.90;;;;;;5072929;28;19930;-71
2022/01/23 17:14:26;;;;;;;;;;;19.50;99.90;;;;;;5073158;28;20324;-72
2022/01/23 17:16:53;;;;;;;;;;;19.50;99.90;;;;;;5073138;28;19969;-72
2022/01/23 17:19:20;;;;;;;;;;;19.40;99.90;;;;;;5073203;28;19909;-72
2022/01/23 17:21:47;;;;;;;;;;;19.30;99.90;;;;;;5072876;28;20382;-72
2022/01/23 17:24:13;;;;;;;;;;;19.30;99.90;;;;;;5072765;28;19908;-72
2022/01/23 17:26:40;;;;;;;;;;;19.20;99.90;;;;;;5072806;28;20381;-72
2022/01/23 17:29:07;;;;;;;;;;;19.10;99.90;;;;;;5072779;28;19908;-72
2022/01/23 17:31:33;;;;;;;;;;;19.20;99.90;;;;;;5072742;28;19915;-72
2022/01/23 17:34:00;;;;;;;;;;;19.30;99.90;;;;;;5072000;28;19963;-72
2022/01/23 17:36:26;;;;;;;;;;;19.30;99.90;;;;;;5072724;28;19909;-72
2022/01/23 17:38:53;;;;;;;;;;;19.30;99.90;;;;;;5072757;28;19909;-72
2022/01/23 17:41:20;;;;;;;;;;;19.30;99.90;;;;;;5072666;28;20015;-72
2022/01/23 17:43:48;;;;;;;;;;;19.30;99.90;;;;;;5072487;28;19908;-72
2022/01/23 17:46:21;;;;;;;;;;;19.30;99.90;;;;;;5072651;28;19916;-72
2022/01/23 17:48:51;;;;;;;;;;;19.30;99.90;;;;;;5072473;28;19921;-72